sensor_id;sensor_type;location;lat;lon;timestamp;P1;durP1;ratioP1;P2;durP2;ratioP2
64623;SDS011;51031;50.912;9.242;2022-09-20T00:00:14;119.97;;;75.88;;
64623;SDS011;51031;50.912;9.242;2022-09-20T00:00:30;92.13;;;57.08;;
64623;SDS011;51031;50.912;9.242;2022-09-20T00:00:46;27.45;;;15.25;;
64623;SDS011;51031;50.912;9.242;2022-09-20T00:01:04;54.78;;;34.30;;
64623;SDS011;51031;50.912;9.242;2022-09-20T00:01:22;89.20;;;56.53;;
64623;SDS011;51031;50.912;9.242;2022-09-20T00:01:41;67.53;;;44.05;;
64623;SDS011;51031;50.912;9.242;2022-09-20T00:01:56;118.68;;;76.82;;
64623;SDS011;51031;50.912;9.242;2022-09-20T00:02:12;112.77;;;72.53;;
64623;SDS011;51031;50.912;9.242;2022-09-20T00:02:28;25.25;;;15.57;;
64623;SDS011;51031;50.912;9.242;2022-09-20T00:02:44;60.03;;;37.85;;
64623;SDS011;51031;50.912;9.242;2022-09-20T00:03:00;136.02;;;87.72;;
64623;SDS011;51031;50.912;9.242;2022-09-20T00:03:16;139.75;;;90.80;;
64623;SDS011;51031;50.912;9.242;2022-09-20T00:03:33;160.43;;;103.75;;
64623;SDS011;51031;50.912;9.242;2022-09-20T00:03:50;146.50;;;93.95;;
64623;SDS011;51031;50.912;9.242;2022-09-20T00:04:08;130.90;;;83.20;;
64623;SDS011;51031;50.912;9.242;2022-09-20T00:04:25;131.30;;;83.28;;
64623;SDS011;51031;50.912;9.242;2022-09-20T00:04:41;81.40;;;50.90;;
64623;SDS011;51031;50.912;9.242;2022-09-20T00:04:57;109.38;;;69.80;;
64623;SDS011;51031;50.912;9.242;2022-09-20T00:05:15;200.75;;;128.77;;
64623;SDS011;51031;50.912;9.242;2022-09-20T00:05:32;220.95;;;141.77;;
64623;SDS011;51031;50.912;9.242;2022-09-20T00:05:48;194.80;;;126.30;;
64623;SDS011;51031;50.912;9.242;2022-09-20T00:06:05;195.77;;;125.78;;
64623;SDS011;51031;50.912;9.242;2022-09-20T00:06:24;177.50;;;113.97;;
64623;SDS011;51031;50.912;9.242;2022-09-20T00:06:42;99.00;;;64.30;;
64623;SDS011;51031;50.912;9.242;2022-09-20T00:06:57;151.20;;;97.63;;
64623;SDS011;51031;50.912;9.242;2022-09-20T00:07:13;159.97;;;103.70;;
64623;SDS011;51031;50.912;9.242;2022-09-20T00:07:30;137.82;;;90.65;;
64623;SDS011;51031;50.912;9.242;2022-09-20T00:07:46;149.55;;;98.40;;
64623;SDS011;51031;50.912;9.242;2022-09-20T00:08:02;76.40;;;49.17;;
64623;SDS011;51031;50.912;9.242;2022-09-20T00:08:18;60.63;;;37.63;;
64623;SDS011;51031;50.912;9.242;2022-09-20T00:08:36;171.90;;;110.82;;
64623;SDS011;51031;50.912;9.242;2022-09-20T00:08:53;209.93;;;136.00;;
64623;SDS011;51031;50.912;9.242;2022-09-20T00:09:10;186.38;;;120.13;;
64623;SDS011;51031;50.912;9.242;2022-09-20T00:09:26;84.00;;;54.00;;
64623;SDS011;51031;50.912;9.242;2022-09-20T00:09:42;14.10;;;7.93;;
64623;SDS011;51031;50.912;9.242;2022-09-20T00:09:58;60.65;;;38.67;;
64623;SDS011;51031;50.912;9.242;2022-09-20T00:10:14;130.00;;;83.53;;
64623;SDS011;51031;50.912;9.242;2022-09-20T00:10:30;145.88;;;93.82;;
64623;SDS011;51031;50.912;9.242;2022-09-20T00:10:50;127.90;;;82.15;;
64623;SDS011;51031;50.912;9.242;2022-09-20T00:11:08;171.50;;;107.70;;
64623;SDS011;51031;50.912;9.242;2022-09-20T00:11:26;171.88;;;109.75;;
64623;SDS011;51031;50.912;9.242;2022-09-20T00:11:44;152.68;;;97.68;;
64623;SDS011;51031;50.912;9.242;2022-09-20T00:12:01;121.50;;;78.60;;
64623;SDS011;51031;50.912;9.242;2022-09-20T00:12:17;176.73;;;113.53;;
64623;SDS011;51031;50.912;9.242;2022-09-20T00:12:33;200.80;;;128.60;;
64623;SDS011;51031;50.912;9.242;2022-09-20T00:12:52;161.80;;;103.05;;
64623;SDS011;51031;50.912;9.242;2022-09-20T00:13:08;141.75;;;91.40;;
64623;SDS011;51031;50.912;9.242;2022-09-20T00:13:26;174.40;;;113.00;;
64623;SDS011;51031;50.912;9.242;2022-09-20T00:13:44;154.30;;;99.28;;
64623;SDS011;51031;50.912;9.242;2022-09-20T00:14:02;145.07;;;94.53;;
64623;SDS011;51031;50.912;9.242;2022-09-20T00:14:20;170.02;;;110.53;;
64623;SDS011;51031;50.912;9.242;2022-09-20T00:14:37;173.32;;;112.65;;
64623;SDS011;51031;50.912;9.242;2022-09-20T00:14:52;169.20;;;111.20;;
64623;SDS011;51031;50.912;9.242;2022-09-20T00:15:08;176.07;;;115.20;;
64623;SDS011;51031;50.912;9.242;2022-09-20T00:15:27;190.85;;;121.78;;
64623;SDS011;51031;50.912;9.242;2022-09-20T00:15:43;195.30;;;123.90;;
64623;SDS011;51031;50.912;9.242;2022-09-20T00:16:03;192.07;;;122.60;;
64623;SDS011;51031;50.912;9.242;2022-09-20T00:16:21;184.57;;;118.93;;
64623;SDS011;51031;50.912;9.242;2022-09-20T00:16:38;181.60;;;117.25;;
64623;SDS011;51031;50.912;9.242;2022-09-20T00:16:55;184.00;;;119.47;;
64623;SDS011;51031;50.912;9.242;2022-09-20T00:17:11;171.00;;;112.13;;
64623;SDS011;51031;50.912;9.242;2022-09-20T00:17:26;169.10;;;110.28;;
64623;SDS011;51031;50.912;9.242;2022-09-20T00:17:43;175.77;;;113.68;;
64623;SDS011;51031;50.912;9.242;2022-09-20T00:17:59;178.20;;;115.30;;
64623;SDS011;51031;50.912;9.242;2022-09-20T00:18:15;182.25;;;116.93;;
64623;SDS011;51031;50.912;9.242;2022-09-20T00:18:31;177.40;;;113.17;;
64623;SDS011;51031;50.912;9.242;2022-09-20T00:18:47;182.50;;;115.38;;
64623;SDS011;51031;50.912;9.242;2022-09-20T00:19:03;154.27;;;98.85;;
64623;SDS011;51031;50.912;9.242;2022-09-20T00:19:21;128.32;;;84.70;;
64623;SDS011;51031;50.912;9.242;2022-09-20T00:19:36;162.15;;;105.35;;
64623;SDS011;51031;50.912;9.242;2022-09-20T00:19:52;176.30;;;112.80;;
64623;SDS011;51031;50.912;9.242;2022-09-20T00:20:08;170.52;;;108.25;;
64623;SDS011;51031;50.912;9.242;2022-09-20T00:20:24;151.15;;;98.43;;
64623;SDS011;51031;50.912;9.242;2022-09-20T00:20:43;140.98;;;95.00;;
64623;SDS011;51031;50.912;9.242;2022-09-20T00:21:00;144.23;;;96.10;;
64623;SDS011;51031;50.912;9.242;2022-09-20T00:21:17;159.48;;;103.30;;
64623;SDS011;51031;50.912;9.242;2022-09-20T00:21:34;171.82;;;111.03;;
64623;SDS011;51031;50.912;9.242;2022-09-20T00:21:51;173.65;;;112.15;;
64623;SDS011;51031;50.912;9.242;2022-09-20T00:22:07;170.15;;;110.10;;
64623;SDS011;51031;50.912;9.242;2022-09-20T00:22:23;144.95;;;95.63;;
64623;SDS011;51031;50.912;9.242;2022-09-20T00:22:40;134.50;;;87.38;;
64623;SDS011;51031;50.912;9.242;2022-09-20T00:22:55;158.32;;;103.30;;
64623;SDS011;51031;50.912;9.242;2022-09-20T00:23:11;170.23;;;111.25;;
64623;SDS011;51031;50.912;9.242;2022-09-20T00:23:27;177.88;;;113.78;;
64623;SDS011;51031;50.912;9.242;2022-09-20T00:23:44;170.13;;;111.10;;
64623;SDS011;51031;50.912;9.242;2022-09-20T00:24:01;158.98;;;104.10;;
64623;SDS011;51031;50.912;9.242;2022-09-20T00:24:17;158.30;;;102.28;;
64623;SDS011;51031;50.912;9.242;2022-09-20T00:24:33;139.77;;;92.00;;
64623;SDS011;51031;50.912;9.242;2022-09-20T00:24:50;140.85;;;92.28;;
64623;SDS011;51031;50.912;9.242;2022-09-20T00:25:07;148.38;;;96.75;;
64623;SDS011;51031;50.912;9.242;2022-09-20T00:25:24;141.30;;;93.07;;
64623;SDS011;51031;50.912;9.242;2022-09-20T00:25:40;144.27;;;95.18;;
64623;SDS011;51031;50.912;9.242;2022-09-20T00:25:57;134.40;;;89.13;;
64623;SDS011;51031;50.912;9.242;2022-09-20T00:26:14;137.90;;;90.88;;
64623;SDS011;51031;50.912;9.242;2022-09-20T00:26:31;159.27;;;104.13;;
64623;SDS011;51031;50.912;9.242;2022-09-20T00:26:49;150.65;;;98.00;;
64623;SDS011;51031;50.912;9.242;2022-09-20T00:27:06;137.30;;;89.00;;
64623;SDS011;51031;50.912;9.242;2022-09-20T00:27:21;137.37;;;89.97;;
64623;SDS011;51031;50.912;9.242;2022-09-20T00:27:37;148.07;;;96.90;;
64623;SDS011;51031;50.912;9.242;2022-09-20T00:27:53;153.57;;;100.43;;
64623;SDS011;51031;50.912;9.242;2022-09-20T00:28:09;123.32;;;82.45;;
64623;SDS011;51031;50.912;9.242;2022-09-20T00:28:28;128.75;;;86.60;;
64623;SDS011;51031;50.912;9.242;2022-09-20T00:28:44;146.73;;;97.35;;
64623;SDS011;51031;50.912;9.242;2022-09-20T00:29:01;147.35;;;97.68;;
64623;SDS011;51031;50.912;9.242;2022-09-20T00:29:17;152.75;;;98.82;;
64623;SDS011;51031;50.912;9.242;2022-09-20T00:29:33;149.47;;;97.03;;
64623;SDS011;51031;50.912;9.242;2022-09-20T00:29:49;138.27;;;91.28;;
64623;SDS011;51031;50.912;9.242;2022-09-20T00:30:06;138.15;;;89.28;;
64623;SDS011;51031;50.912;9.242;2022-09-20T00:30:22;129.95;;;83.32;;
64623;SDS011;51031;50.912;9.242;2022-09-20T00:30:38;132.70;;;85.93;;
64623;SDS011;51031;50.912;9.242;2022-09-20T00:30:54;115.33;;;75.37;;
64623;SDS011;51031;50.912;9.242;2022-09-20T00:31:11;113.15;;;73.40;;
64623;SDS011;51031;50.912;9.242;2022-09-20T00:31:29;118.95;;;77.88;;
64623;SDS011;51031;50.912;9.242;2022-09-20T00:31:45;122.15;;;78.90;;
64623;SDS011;51031;50.912;9.242;2022-09-20T00:32:01;132.02;;;86.32;;
64623;SDS011;51031;50.912;9.242;2022-09-20T00:32:17;136.75;;;89.63;;
64623;SDS011;51031;50.912;9.242;2022-09-20T00:32:33;143.77;;;94.35;;
64623;SDS011;51031;50.912;9.242;2022-09-20T00:32:50;135.15;;;88.50;;
64623;SDS011;51031;50.912;9.242;2022-09-20T00:33:05;125.30;;;83.80;;
64623;SDS011;51031;50.912;9.242;2022-09-20T00:33:21;127.43;;;86.20;;
64623;SDS011;51031;50.912;9.242;2022-09-20T00:33:38;133.40;;;86.82;;
64623;SDS011;51031;50.912;9.242;2022-09-20T00:34:13;130.50;;;85.03;;
64623;SDS011;51031;50.912;9.242;2022-09-20T00:34:47;140.65;;;92.20;;
64623;SDS011;51031;50.912;9.242;2022-09-20T00:35:30;140.07;;;92.00;;
64623;SDS011;51031;50.912;9.242;2022-09-20T00:35:46;153.07;;;98.38;;
64623;SDS011;51031;50.912;9.242;2022-09-20T00:36:01;125.45;;;82.88;;
64623;SDS011;51031;50.912;9.242;2022-09-20T00:36:17;115.90;;;77.85;;
64623;SDS011;51031;50.912;9.242;2022-09-20T00:36:33;135.93;;;89.03;;
64623;SDS011;51031;50.912;9.242;2022-09-20T00:36:50;126.75;;;83.57;;
64623;SDS011;51031;50.912;9.242;2022-09-20T00:37:05;121.22;;;81.28;;
64623;SDS011;51031;50.912;9.242;2022-09-20T00:37:21;132.93;;;88.38;;
64623;SDS011;51031;50.912;9.242;2022-09-20T00:37:38;127.40;;;84.33;;
64623;SDS011;51031;50.912;9.242;2022-09-20T00:37:54;111.57;;;74.05;;
64623;SDS011;51031;50.912;9.242;2022-09-20T00:38:10;107.40;;;71.60;;
64623;SDS011;51031;50.912;9.242;2022-09-20T00:38:28;120.22;;;79.68;;
64623;SDS011;51031;50.912;9.242;2022-09-20T00:38:43;129.38;;;84.80;;
64623;SDS011;51031;50.912;9.242;2022-09-20T00:39:00;135.00;;;87.80;;
64623;SDS011;51031;50.912;9.242;2022-09-20T00:39:17;149.48;;;98.45;;
64623;SDS011;51031;50.912;9.242;2022-09-20T00:39:33;148.00;;;98.47;;
64623;SDS011;51031;50.912;9.242;2022-09-20T00:39:50;146.18;;;96.03;;
64623;SDS011;51031;50.912;9.242;2022-09-20T00:40:07;133.13;;;88.55;;
64623;SDS011;51031;50.912;9.242;2022-09-20T00:40:25;119.65;;;79.88;;
64623;SDS011;51031;50.912;9.242;2022-09-20T00:40:41;121.70;;;80.57;;
64623;SDS011;51031;50.912;9.242;2022-09-20T00:40:58;117.07;;;76.47;;
64623;SDS011;51031;50.912;9.242;2022-09-20T00:41:14;122.15;;;79.15;;
64623;SDS011;51031;50.912;9.242;2022-09-20T00:41:31;127.68;;;84.15;;
64623;SDS011;51031;50.912;9.242;2022-09-20T00:41:47;111.80;;;74.47;;
64623;SDS011;51031;50.912;9.242;2022-09-20T00:42:03;112.63;;;74.43;;
64623;SDS011;51031;50.912;9.242;2022-09-20T00:42:24;118.03;;;76.68;;
64623;SDS011;51031;50.912;9.242;2022-09-20T00:42:41;127.95;;;82.82;;
64623;SDS011;51031;50.912;9.242;2022-09-20T00:42:57;111.57;;;72.47;;
64623;SDS011;51031;50.912;9.242;2022-09-20T00:43:13;109.47;;;70.40;;
64623;SDS011;51031;50.912;9.242;2022-09-20T00:43:36;109.32;;;71.78;;
64623;SDS011;51031;50.912;9.242;2022-09-20T00:43:53;107.82;;;71.07;;
64623;SDS011;51031;50.912;9.242;2022-09-20T00:45:00;108.90;;;71.40;;
64623;SDS011;51031;50.912;9.242;2022-09-20T00:45:19;115.53;;;76.20;;
64623;SDS011;51031;50.912;9.242;2022-09-20T00:45:36;108.43;;;71.25;;
64623;SDS011;51031;50.912;9.242;2022-09-20T00:45:52;92.90;;;61.00;;
64623;SDS011;51031;50.912;9.242;2022-09-20T00:46:18;129.50;;;86.00;;
64623;SDS011;51031;50.912;9.242;2022-09-20T00:46:39;108.38;;;72.20;;
64623;SDS011;51031;50.912;9.242;2022-09-20T00:46:59;122.82;;;81.43;;
64623;SDS011;51031;50.912;9.242;2022-09-20T00:47:19;99.60;;;65.25;;
64623;SDS011;51031;50.912;9.242;2022-09-20T00:47:39;115.68;;;76.00;;
64623;SDS011;51031;50.912;9.242;2022-09-20T00:47:58;95.97;;;61.42;;
64623;SDS011;51031;50.912;9.242;2022-09-20T00:48:21;108.65;;;72.78;;
64623;SDS011;51031;50.912;9.242;2022-09-20T00:48:44;112.07;;;76.65;;
64623;SDS011;51031;50.912;9.242;2022-09-20T00:49:02;131.15;;;86.88;;
64623;SDS011;51031;50.912;9.242;2022-09-20T00:49:25;126.45;;;83.35;;
64623;SDS011;51031;50.912;9.242;2022-09-20T00:49:42;111.43;;;74.43;;
64623;SDS011;51031;50.912;9.242;2022-09-20T00:50:00;101.75;;;67.60;;
64623;SDS011;51031;50.912;9.242;2022-09-20T00:50:27;117.85;;;78.93;;
64623;SDS011;51031;50.912;9.242;2022-09-20T00:50:48;108.22;;;70.03;;
64623;SDS011;51031;50.912;9.242;2022-09-20T00:51:10;101.45;;;66.45;;
64623;SDS011;51031;50.912;9.242;2022-09-20T00:51:32;110.28;;;71.30;;
64623;SDS011;51031;50.912;9.242;2022-09-20T00:51:53;103.10;;;68.28;;
64623;SDS011;51031;50.912;9.242;2022-09-20T00:52:12;122.78;;;82.10;;
64623;SDS011;51031;50.912;9.242;2022-09-20T00:52:28;114.78;;;76.95;;
64623;SDS011;51031;50.912;9.242;2022-09-20T00:52:44;113.05;;;74.78;;
64623;SDS011;51031;50.912;9.242;2022-09-20T00:53:07;104.18;;;68.25;;
64623;SDS011;51031;50.912;9.242;2022-09-20T00:53:27;118.75;;;76.30;;
64623;SDS011;51031;50.912;9.242;2022-09-20T00:53:46;119.93;;;77.65;;
64623;SDS011;51031;50.912;9.242;2022-09-20T00:54:03;116.57;;;75.80;;
64623;SDS011;51031;50.912;9.242;2022-09-20T00:54:22;116.38;;;75.90;;
64623;SDS011;51031;50.912;9.242;2022-09-20T00:54:39;92.88;;;61.28;;
64623;SDS011;51031;50.912;9.242;2022-09-20T00:54:58;50.92;;;33.53;;
64623;SDS011;51031;50.912;9.242;2022-09-20T00:55:15;53.58;;;34.22;;
64623;SDS011;51031;50.912;9.242;2022-09-20T00:55:32;62.60;;;40.33;;
64623;SDS011;51031;50.912;9.242;2022-09-20T00:55:52;76.90;;;51.20;;
64623;SDS011;51031;50.912;9.242;2022-09-20T00:56:12;107.03;;;71.10;;
64623;SDS011;51031;50.912;9.242;2022-09-20T00:56:30;109.68;;;71.60;;
64623;SDS011;51031;50.912;9.242;2022-09-20T00:56:49;109.88;;;69.80;;
64623;SDS011;51031;50.912;9.242;2022-09-20T00:57:06;96.78;;;62.72;;
64623;SDS011;51031;50.912;9.242;2022-09-20T00:57:22;70.18;;;44.90;;
64623;SDS011;51031;50.912;9.242;2022-09-20T00:57:39;96.95;;;61.58;;
64623;SDS011;51031;50.912;9.242;2022-09-20T00:57:59;80.07;;;51.22;;
64623;SDS011;51031;50.912;9.242;2022-09-20T00:58:15;41.17;;;26.70;;
64623;SDS011;51031;50.912;9.242;2022-09-20T00:58:34;95.75;;;63.38;;
64623;SDS011;51031;50.912;9.242;2022-09-20T00:58:58;119.90;;;78.65;;
64623;SDS011;51031;50.912;9.242;2022-09-20T00:59:24;125.63;;;81.60;;
64623;SDS011;51031;50.912;9.242;2022-09-20T00:59:45;131.88;;;85.97;;
64623;SDS011;51031;50.912;9.242;2022-09-20T01:00:04;129.35;;;83.38;;
64623;SDS011;51031;50.912;9.242;2022-09-20T01:00:22;114.28;;;75.13;;
64623;SDS011;51031;50.912;9.242;2022-09-20T01:00:39;108.72;;;72.25;;
64623;SDS011;51031;50.912;9.242;2022-09-20T01:00:57;119.55;;;79.78;;
64623;SDS011;51031;50.912;9.242;2022-09-20T01:01:13;120.30;;;79.75;;
64623;SDS011;51031;50.912;9.242;2022-09-20T01:01:30;98.68;;;66.18;;
64623;SDS011;51031;50.912;9.242;2022-09-20T01:01:51;108.32;;;72.32;;
64623;SDS011;51031;50.912;9.242;2022-09-20T01:02:11;117.75;;;76.85;;
64623;SDS011;51031;50.912;9.242;2022-09-20T01:02:30;116.80;;;74.70;;
64623;SDS011;51031;50.912;9.242;2022-09-20T01:02:50;127.43;;;82.50;;
64623;SDS011;51031;50.912;9.242;2022-09-20T01:03:10;124.25;;;82.35;;
64623;SDS011;51031;50.912;9.242;2022-09-20T01:03:29;119.95;;;79.15;;
64623;SDS011;51031;50.912;9.242;2022-09-20T01:03:46;113.18;;;74.45;;
64623;SDS011;51031;50.912;9.242;2022-09-20T01:04:03;95.55;;;63.55;;
64623;SDS011;51031;50.912;9.242;2022-09-20T01:04:19;85.05;;;57.17;;
64623;SDS011;51031;50.912;9.242;2022-09-20T01:04:38;100.07;;;65.13;;
64623;SDS011;51031;50.912;9.242;2022-09-20T01:04:57;106.57;;;68.85;;
64623;SDS011;51031;50.912;9.242;2022-09-20T01:05:14;113.38;;;72.65;;
64623;SDS011;51031;50.912;9.242;2022-09-20T01:05:33;126.45;;;80.97;;
64623;SDS011;51031;50.912;9.242;2022-09-20T01:05:49;117.22;;;75.90;;
64623;SDS011;51031;50.912;9.242;2022-09-20T01:06:08;115.00;;;75.00;;
64623;SDS011;51031;50.912;9.242;2022-09-20T01:06:29;93.70;;;60.92;;
64623;SDS011;51031;50.912;9.242;2022-09-20T01:06:46;112.25;;;72.43;;
64623;SDS011;51031;50.912;9.242;2022-09-20T01:07:08;104.03;;;69.78;;
64623;SDS011;51031;50.912;9.242;2022-09-20T01:07:26;82.05;;;54.33;;
64623;SDS011;51031;50.912;9.242;2022-09-20T01:07:42;94.57;;;61.58;;
64623;SDS011;51031;50.912;9.242;2022-09-20T01:08:01;106.22;;;69.45;;
64623;SDS011;51031;50.912;9.242;2022-09-20T01:08:18;107.95;;;68.28;;
64623;SDS011;51031;50.912;9.242;2022-09-20T01:08:35;112.35;;;72.07;;
64623;SDS011;51031;50.912;9.242;2022-09-20T01:08:52;95.50;;;63.22;;
64623;SDS011;51031;50.912;9.242;2022-09-20T01:09:10;92.18;;;61.63;;
64623;SDS011;51031;50.912;9.242;2022-09-20T01:09:26;109.83;;;71.87;;
64623;SDS011;51031;50.912;9.242;2022-09-20T01:09:43;117.38;;;75.50;;
64623;SDS011;51031;50.912;9.242;2022-09-20T01:09:59;121.18;;;77.82;;
64623;SDS011;51031;50.912;9.242;2022-09-20T01:10:15;103.05;;;67.80;;
64623;SDS011;51031;50.912;9.242;2022-09-20T01:10:31;83.15;;;55.35;;
64623;SDS011;51031;50.912;9.242;2022-09-20T01:10:47;97.10;;;64.00;;
64623;SDS011;51031;50.912;9.242;2022-09-20T01:11:04;113.10;;;73.57;;
64623;SDS011;51031;50.912;9.242;2022-09-20T01:11:20;122.82;;;78.95;;
64623;SDS011;51031;50.912;9.242;2022-09-20T01:11:36;106.95;;;68.38;;
64623;SDS011;51031;50.912;9.242;2022-09-20T01:11:53;90.72;;;57.78;;
64623;SDS011;51031;50.912;9.242;2022-09-20T01:12:12;88.32;;;56.65;;
64623;SDS011;51031;50.912;9.242;2022-09-20T01:12:31;101.13;;;66.15;;
64623;SDS011;51031;50.912;9.242;2022-09-20T01:12:49;94.18;;;61.70;;
64623;SDS011;51031;50.912;9.242;2022-09-20T01:13:07;104.65;;;67.68;;
64623;SDS011;51031;50.912;9.242;2022-09-20T01:13:23;69.63;;;44.90;;
64623;SDS011;51031;50.912;9.242;2022-09-20T01:13:41;66.18;;;42.80;;
64623;SDS011;51031;50.912;9.242;2022-09-20T01:13:56;90.35;;;59.08;;
64623;SDS011;51031;50.912;9.242;2022-09-20T01:14:12;91.50;;;59.50;;
64623;SDS011;51031;50.912;9.242;2022-09-20T01:14:33;111.32;;;72.57;;
64623;SDS011;51031;50.912;9.242;2022-09-20T01:14:49;114.10;;;74.75;;
64623;SDS011;51031;50.912;9.242;2022-09-20T01:15:07;118.85;;;76.82;;
64623;SDS011;51031;50.912;9.242;2022-09-20T01:15:23;119.97;;;77.15;;
64623;SDS011;51031;50.912;9.242;2022-09-20T01:15:43;116.07;;;75.50;;
64623;SDS011;51031;50.912;9.242;2022-09-20T01:16:02;101.18;;;67.90;;
64623;SDS011;51031;50.912;9.242;2022-09-20T01:16:20;110.38;;;71.68;;
64623;SDS011;51031;50.912;9.242;2022-09-20T01:16:36;106.40;;;69.60;;
64623;SDS011;51031;50.912;9.242;2022-09-20T01:16:53;95.77;;;63.13;;
64623;SDS011;51031;50.912;9.242;2022-09-20T01:17:10;102.53;;;67.53;;
64623;SDS011;51031;50.912;9.242;2022-09-20T01:17:28;117.82;;;75.38;;
64623;SDS011;51031;50.912;9.242;2022-09-20T01:17:47;109.95;;;70.13;;
64623;SDS011;51031;50.912;9.242;2022-09-20T01:18:06;95.35;;;62.67;;
64623;SDS011;51031;50.912;9.242;2022-09-20T01:18:24;89.63;;;59.13;;
64623;SDS011;51031;50.912;9.242;2022-09-20T01:18:42;90.07;;;58.07;;
64623;SDS011;51031;50.912;9.242;2022-09-20T01:19:00;106.78;;;69.40;;
64623;SDS011;51031;50.912;9.242;2022-09-20T01:19:26;91.28;;;59.22;;
64623;SDS011;51031;50.912;9.242;2022-09-20T01:19:51;46.78;;;29.73;;
64623;SDS011;51031;50.912;9.242;2022-09-20T01:20:22;102.93;;;66.80;;
64623;SDS011;51031;50.912;9.242;2022-09-20T01:20:41;95.80;;;62.75;;
64623;SDS011;51031;50.912;9.242;2022-09-20T01:20:58;96.78;;;64.78;;
64623;SDS011;51031;50.912;9.242;2022-09-20T01:21:15;115.47;;;74.57;;
64623;SDS011;51031;50.912;9.242;2022-09-20T01:21:34;101.47;;;65.07;;
64623;SDS011;51031;50.912;9.242;2022-09-20T01:21:50;79.30;;;52.20;;
64623;SDS011;51031;50.912;9.242;2022-09-20T01:22:08;90.43;;;60.42;;
64623;SDS011;51031;50.912;9.242;2022-09-20T01:22:35;87.40;;;57.50;;
64623;SDS011;51031;50.912;9.242;2022-09-20T01:23:02;82.97;;;54.08;;
64623;SDS011;51031;50.912;9.242;2022-09-20T01:23:45;99.22;;;65.03;;
64623;SDS011;51031;50.912;9.242;2022-09-20T01:24:05;93.80;;;62.38;;
64623;SDS011;51031;50.912;9.242;2022-09-20T01:24:27;100.97;;;65.28;;
64623;SDS011;51031;50.912;9.242;2022-09-20T01:24:58;97.78;;;63.00;;
64623;SDS011;51031;50.912;9.242;2022-09-20T01:25:25;104.20;;;68.30;;
64623;SDS011;51031;50.912;9.242;2022-09-20T01:26:05;82.00;;;54.40;;
64623;SDS011;51031;50.912;9.242;2022-09-20T01:26:36;78.45;;;51.63;;
64623;SDS011;51031;50.912;9.242;2022-09-20T01:27:09;65.72;;;43.35;;
64623;SDS011;51031;50.912;9.242;2022-09-20T01:27:40;42.67;;;26.92;;
64623;SDS011;51031;50.912;9.242;2022-09-20T01:27:57;64.00;;;42.85;;
64623;SDS011;51031;50.912;9.242;2022-09-20T01:28:13;69.32;;;46.55;;
64623;SDS011;51031;50.912;9.242;2022-09-20T01:28:30;62.03;;;42.35;;
64623;SDS011;51031;50.912;9.242;2022-09-20T01:28:46;71.25;;;47.67;;
64623;SDS011;51031;50.912;9.242;2022-09-20T01:29:08;80.07;;;51.78;;
64623;SDS011;51031;50.912;9.242;2022-09-20T01:29:34;72.90;;;45.70;;
64623;SDS011;51031;50.912;9.242;2022-09-20T01:30:01;69.00;;;44.00;;
64623;SDS011;51031;50.912;9.242;2022-09-20T01:30:21;96.40;;;62.22;;
64623;SDS011;51031;50.912;9.242;2022-09-20T01:30:46;86.40;;;57.50;;
64623;SDS011;51031;50.912;9.242;2022-09-20T01:31:06;85.03;;;55.30;;
64623;SDS011;51031;50.912;9.242;2022-09-20T01:31:25;86.32;;;55.55;;
64623;SDS011;51031;50.912;9.242;2022-09-20T01:31:43;80.40;;;52.95;;
64623;SDS011;51031;50.912;9.242;2022-09-20T01:32:04;87.22;;;56.65;;
64623;SDS011;51031;50.912;9.242;2022-09-20T01:32:29;91.60;;;59.42;;
64623;SDS011;51031;50.912;9.242;2022-09-20T01:32:59;78.72;;;51.75;;
64623;SDS011;51031;50.912;9.242;2022-09-20T01:33:22;89.97;;;59.35;;
64623;SDS011;51031;50.912;9.242;2022-09-20T01:33:46;94.55;;;60.70;;
64623;SDS011;51031;50.912;9.242;2022-09-20T01:34:05;92.78;;;60.33;;
64623;SDS011;51031;50.912;9.242;2022-09-20T01:34:26;92.20;;;59.75;;
64623;SDS011;51031;50.912;9.242;2022-09-20T01:34:46;92.35;;;60.90;;
64623;SDS011;51031;50.912;9.242;2022-09-20T01:35:07;91.15;;;61.05;;
64623;SDS011;51031;50.912;9.242;2022-09-20T01:35:25;87.80;;;58.08;;
64623;SDS011;51031;50.912;9.242;2022-09-20T01:35:43;77.15;;;51.67;;
64623;SDS011;51031;50.912;9.242;2022-09-20T01:36:01;76.85;;;50.63;;
64623;SDS011;51031;50.912;9.242;2022-09-20T01:36:21;93.43;;;61.30;;
64623;SDS011;51031;50.912;9.242;2022-09-20T01:36:42;99.75;;;64.90;;
64623;SDS011;51031;50.912;9.242;2022-09-20T01:37:04;51.58;;;31.60;;
64623;SDS011;51031;50.912;9.242;2022-09-20T01:37:25;46.38;;;29.63;;
64623;SDS011;51031;50.912;9.242;2022-09-20T01:37:46;63.78;;;43.28;;
64623;SDS011;51031;50.912;9.242;2022-09-20T01:38:14;83.53;;;55.05;;
64623;SDS011;51031;50.912;9.242;2022-09-20T01:38:40;47.13;;;28.77;;
64623;SDS011;51031;50.912;9.242;2022-09-20T01:39:00;59.40;;;36.85;;
64623;SDS011;51031;50.912;9.242;2022-09-20T01:39:27;81.47;;;54.75;;
64623;SDS011;51031;50.912;9.242;2022-09-20T01:39:56;93.35;;;60.22;;
64623;SDS011;51031;50.912;9.242;2022-09-20T01:40:23;84.22;;;55.65;;
64623;SDS011;51031;50.912;9.242;2022-09-20T01:40:46;95.20;;;61.22;;
64623;SDS011;51031;50.912;9.242;2022-09-20T01:41:11;80.53;;;52.40;;
64623;SDS011;51031;50.912;9.242;2022-09-20T01:41:34;90.38;;;58.15;;
64623;SDS011;51031;50.912;9.242;2022-09-20T01:41:53;93.07;;;60.95;;
64623;SDS011;51031;50.912;9.242;2022-09-20T01:42:13;93.50;;;61.05;;
64623;SDS011;51031;50.912;9.242;2022-09-20T01:42:31;83.05;;;55.25;;
64623;SDS011;51031;50.912;9.242;2022-09-20T01:42:54;76.38;;;51.78;;
64623;SDS011;51031;50.912;9.242;2022-09-20T01:43:17;60.42;;;38.38;;
64623;SDS011;51031;50.912;9.242;2022-09-20T01:43:43;53.03;;;32.75;;
64623;SDS011;51031;50.912;9.242;2022-09-20T01:44:08;86.90;;;55.40;;
64623;SDS011;51031;50.912;9.242;2022-09-20T01:44:33;85.55;;;56.63;;
64623;SDS011;51031;50.912;9.242;2022-09-20T01:44:54;70.50;;;46.50;;
64623;SDS011;51031;50.912;9.242;2022-09-20T01:45:21;54.88;;;34.88;;
64623;SDS011;51031;50.912;9.242;2022-09-20T01:45:43;65.72;;;42.15;;
64623;SDS011;51031;50.912;9.242;2022-09-20T01:46:03;63.40;;;42.05;;
64623;SDS011;51031;50.912;9.242;2022-09-20T01:46:31;85.90;;;56.95;;
64623;SDS011;51031;50.912;9.242;2022-09-20T01:46:49;85.97;;;56.33;;
64623;SDS011;51031;50.912;9.242;2022-09-20T01:47:14;68.20;;;44.65;;
64623;SDS011;51031;50.912;9.242;2022-09-20T01:47:43;89.20;;;58.00;;
64623;SDS011;51031;50.912;9.242;2022-09-20T01:48:07;40.90;;;26.02;;
64623;SDS011;51031;50.912;9.242;2022-09-20T01:48:33;25.30;;;14.23;;
64623;SDS011;51031;50.912;9.242;2022-09-20T01:48:52;71.47;;;46.25;;
64623;SDS011;51031;50.912;9.242;2022-09-20T01:49:19;83.70;;;54.47;;
64623;SDS011;51031;50.912;9.242;2022-09-20T01:49:48;78.95;;;52.22;;
64623;SDS011;51031;50.912;9.242;2022-09-20T01:50:13;69.28;;;44.30;;
64623;SDS011;51031;50.912;9.242;2022-09-20T01:50:41;16.45;;;9.00;;
64623;SDS011;51031;50.912;9.242;2022-09-20T01:51:27;55.33;;;34.95;;